sensor_id;sensor_type;location;lat;lon;timestamp;temperature;humidity
7498;DHT22;3790;48.806;9.140;2024-02-04T07:30:22;7.50;99.90
7498;DHT22;3790;48.806;9.140;2024-02-04T07:35:23;7.60;99.90
7498;DHT22;3790;48.806;9.140;2024-02-04T07:40:23;7.80;99.90
7498;DHT22;3790;48.806;9.140;2024-02-04T07:45:24;8.00;99.90
7498;DHT22;3790;48.806;9.140;2024-02-04T07:50:25;8.10;99.90
7498;DHT22;3790;48.806;9.140;2024-02-04T07:55:25;8.20;99.90
7498;DHT22;3790;48.806;9.140;2024-02-04T08:00:26;8.30;99.90
7498;DHT22;3790;48.806;9.140;2024-02-04T08:05:26;8.40;99.90
7498;DHT22;3790;48.806;9.140;2024-02-04T08:10:27;8.40;99.90
7498;DHT22;3790;48.806;9.140;2024-02-04T08:15:27;8.50;99.90
7498;DHT22;3790;48.806;9.140;2024-02-04T08:20:28;8.50;99.90
7498;DHT22;3790;48.806;9.140;2024-02-04T08:25:29;8.60;99.90
7498;DHT22;3790;48.806;9.140;2024-02-04T08:30:29;8.70;99.90
7498;DHT22;3790;48.806;9.140;2024-02-04T08:35:30;8.70;99.90
7498;DHT22;3790;48.806;9.140;2024-02-04T08:40:30;8.80;99.90
7498;DHT22;3790;48.806;9.140;2024-02-04T08:45:31;9.00;99.90
7498;DHT22;3790;48.806;9.140;2024-02-04T08:50:31;9.00;99.90
7498;DHT22;3790;48.806;9.140;2024-02-04T08:55:32;9.10;99.90
7498;DHT22;3790;48.806;9.140;2024-02-04T09:00:32;9.00;99.90
7498;DHT22;3790;48.806;9.140;2024-02-04T09:05:33;9.10;99.90
7498;DHT22;3790;48.806;9.140;2024-02-04T09:10:34;9.10;99.90
7498;DHT22;3790;48.806;9.140;2024-02-04T09:15:34;9.10;99.90
7498;DHT22;3790;48.806;9.140;2024-02-04T09:20:35;9.10;99.90
7498;DHT22;3790;48.806;9.140;2024-02-04T09:25:35;9.10;99.90
7498;DHT22;3790;48.806;9.140;2024-02-04T09:30:36;9.20;99.90
7498;DHT22;3790;48.806;9.140;2024-02-04T09:35:36;9.50;99.90
7498;DHT22;3790;48.806;9.140;2024-02-04T09:40:37;9.50;99.90
7498;DHT22;3790;48.806;9.140;2024-02-04T09:45:39;9.50;99.90
7498;DHT22;3790;48.806;9.140;2024-02-04T09:50:40;9.50;99.90
7498;DHT22;3790;48.806;9.140;2024-02-04T09:55:41;9.50;99.90
7498;DHT22;3790;48.806;9.140;2024-02-04T10:00:43;9.60;99.90
7498;DHT22;3790;48.806;9.140;2024-02-04T10:05:45;9.60;99.90
7498;DHT22;3790;48.806;9.140;2024-02-04T10:10:46;9.70;99.90
7498;DHT22;3790;48.806;9.140;2024-02-04T10:15:48;9.70;99.90
7498;DHT22;3790;48.806;9.140;2024-02-04T10:20:49;9.80;99.90
7498;DHT22;3790;48.806;9.140;2024-02-04T10:25:58;9.90;99.90
7498;DHT22;3790;48.806;9.140;2024-02-04T10:30:58;10.10;99.90
7498;DHT22;3790;48.806;9.140;2024-02-04T10:35:59;10.30;99.90
7498;DHT22;3790;48.806;9.140;2024-02-04T10:41:01;10.90;99.90
7498;DHT22;3790;48.806;9.140;2024-02-04T10:46:12;10.90;99.90
7498;DHT22;3790;48.806;9.140;2024-02-04T10:51:14;10.70;99.90
7498;DHT22;3790;48.806;9.140;2024-02-04T10:56:32;10.70;99.90
7498;DHT22;3790;48.806;9.140;2024-02-04T11:01:34;10.60;99.90
7498;DHT22;3790;48.806;9.140;2024-02-04T11:06:36;10.60;99.90
7498;DHT22;3790;48.806;9.140;2024-02-04T11:11:38;10.30;99.90
7498;DHT22;3790;48.806;9.140;2024-02-04T11:17:19;10.50;99.90
7498;DHT22;3790;48.806;9.140;2024-02-04T11:22:29;10.80;99.90
7498;DHT22;3790;48.806;9.140;2024-02-04T11:27:33;11.20;99.90
7498;DHT22;3790;48.806;9.140;2024-02-04T11:32:35;11.40;99.90
7498;DHT22;3790;48.806;9.140;2024-02-04T11:37:36;11.50;99.90
7498;DHT22;3790;48.806;9.140;2024-02-04T11:42:38;11.50;99.90
7498;DHT22;3790;48.806;9.140;2024-02-04T11:47:39;11.10;99.90
7498;DHT22;3790;48.806;9.140;2024-02-04T11:52:40;11.20;99.90
7498;DHT22;3790;48.806;9.140;2024-02-04T11:57:41;11.30;99.90
7498;DHT22;3790;48.806;9.140;2024-02-04T12:02:42;11.30;99.90
7498;DHT22;3790;48.806;9.140;2024-02-04T12:07:43;11.20;99.90
7498;DHT22;3790;48.806;9.140;2024-02-04T12:12:44;11.10;99.90
7498;DHT22;3790;48.806;9.140;2024-02-04T12:17:44;10.90;99.90
7498;DHT22;3790;48.806;9.140;2024-02-04T12:22:45;10.80;99.90
7498;DHT22;3790;48.806;9.140;2024-02-04T12:27:46;10.80;99.90
7498;DHT22;3790;48.806;9.140;2024-02-04T12:32:58;10.80;99.90
7498;DHT22;3790;48.806;9.140;2024-02-04T12:37:59;10.80;99.90
7498;DHT22;3790;48.806;9.140;2024-02-04T12:43:02;10.80;99.90
7498;DHT22;3790;48.806;9.140;2024-02-04T12:48:03;11.10;99.90
7498;DHT22;3790;48.806;9.140;2024-02-04T12:53:09;11.30;99.90
7498;DHT22;3790;48.806;9.140;2024-02-04T12:58:12;11.50;99.90
7498;DHT22;3790;48.806;9.140;2024-02-04T13:03:15;11.50;99.90
7498;DHT22;3790;48.806;9.140;2024-02-04T13:08:18;11.70;99.90
7498;DHT22;3790;48.806;9.140;2024-02-04T13:13:20;11.90;99.90
7498;DHT22;3790;48.806;9.140;2024-02-04T13:18:20;11.80;99.90
7498;DHT22;3790;48.806;9.140;2024-02-04T13:23:21;11.60;99.90
7498;DHT22;3790;48.806;9.140;2024-02-04T13:28:22;11.30;99.90
7498;DHT22;3790;48.806;9.140;2024-02-04T13:33:23;11.30;99.90
7498;DHT22;3790;48.806;9.140;2024-02-04T13:38:24;11.30;99.90
7498;DHT22;3790;48.806;9.140;2024-02-04T13:43:24;11.20;99.90
7498;DHT22;3790;48.806;9.140;2024-02-04T13:48:24;11.30;99.90
7498;DHT22;3790;48.806;9.140;2024-02-04T13:53:26;11.40;99.90
7498;DHT22;3790;48.806;9.140;2024-02-04T14:03:31;11.50;99.90
7498;DHT22;3790;48.806;9.140;2024-02-04T14:08:31;11.30;99.90
7498;DHT22;3790;48.806;9.140;2024-02-04T14:13:32;11.30;99.90
7498;DHT22;3790;48.806;9.140;2024-02-04T14:18:33;11.10;99.90
7498;DHT22;3790;48.806;9.140;2024-02-04T14:23:33;11.00;99.90
7498;DHT22;3790;48.806;9.140;2024-02-04T14:28:34;11.00;99.90
7498;DHT22;3790;48.806;9.140;2024-02-04T14:33:42;10.90;99.90
7498;DHT22;3790;48.806;9.140;2024-02-04T14:38:42;10.90;99.90
7498;DHT22;3790;48.806;9.140;2024-02-04T14:43:43;10.80;99.90
7498;DHT22;3790;48.806;9.140;2024-02-04T14:48:43;10.80;99.90
7498;DHT22;3790;48.806;9.140;2024-02-04T14:53:44;10.80;99.90
7498;DHT22;3790;48.806;9.140;2024-02-04T14:58:47;10.80;99.90
7498;DHT22;3790;48.806;9.140;2024-02-04T15:03:47;10.80;99.90
7498;DHT22;3790;48.806;9.140;2024-02-04T15:08:48;10.70;99.90
7498;DHT22;3790;48.806;9.140;2024-02-04T15:13:49;10.70;99.90
7498;DHT22;3790;48.806;9.140;2024-02-04T15:18:50;10.80;99.90
7498;DHT22;3790;48.806;9.140;2024-02-04T15:23:51;10.80;99.90
7498;DHT22;3790;48.806;9.140;2024-02-04T15:28:51;10.60;99.90
7498;DHT22;3790;48.806;9.140;2024-02-04T15:33:52;10.60;99.90
7498;DHT22;3790;48.806;9.140;2024-02-04T15:38:53;10.40;99.90
7498;DHT22;3790;48.806;9.140;2024-02-04T15:43:53;10.30;99.90
7498;DHT22;3790;48.806;9.140;2024-02-04T15:48:54;10.20;99.90
7498;DHT22;3790;48.806;9.140;2024-02-04T15:53:56;10.10;99.90
7498;DHT22;3790;48.806;9.140;2024-02-04T16:04:06;10.00;99.90
7498;DHT22;3790;48.806;9.140;2024-02-04T16:09:09;9.90;99.90
7498;DHT22;3790;48.806;9.140;2024-02-04T16:14:11;9.70;99.90
7498;DHT22;3790;48.806;9.140;2024-02-04T16:19:13;9.60;99.90
7498;DHT22;3790;48.806;9.140;2024-02-04T16:24:14;9.50;99.90
7498;DHT22;3790;48.806;9.140;2024-02-04T16:29:15;9.50;99.90
7498;DHT22;3790;48.806;9.140;2024-02-04T16:34:15;9.50;99.90
7498;DHT22;3790;48.806;9.140;2024-02-04T16:39:16;9.50;99.90
7498;DHT22;3790;48.806;9.140;2024-02-04T16:44:17;9.50;99.90
7498;DHT22;3790;48.806;9.140;2024-02-04T16:49:17;9.40;99.90
7498;DHT22;3790;48.806;9.140;2024-02-04T16:54:18;9.40;99.90
7498;DHT22;3790;48.806;9.140;2024-02-04T16:59:20;9.40;99.90
7498;DHT22;3790;48.806;9.140;2024-02-04T17:04:21;9.40;99.90
7498;DHT22;3790;48.806;9.140;2024-02-04T17:09:23;9.40;99.90
7498;DHT22;3790;48.806;9.140;2024-02-04T17:14:23;9.40;99.90
7498;DHT22;3790;48.806;9.140;2024-02-04T17:25:12;9.30;99.90
7498;DHT22;3790;48.806;9.140;2024-02-04T17:30:17;9.20;99.90
7498;DHT22;3790;48.806;9.140;2024-02-04T17:35:18;9.10;99.90
7498;DHT22;3790;48.806;9.140;2024-02-04T17:40:20;9.10;99.90
7498;DHT22;3790;48.806;9.140;2024-02-04T17:45:21;9.10;99.90
7498;DHT22;3790;48.806;9.140;2024-02-04T17:50:22;9.10;99.90
7498;DHT22;3790;48.806;9.140;2024-02-04T17:55:23;9.10;99.90
7498;DHT22;3790;48.806;9.140;2024-02-04T18:00:23;9.00;99.90
7498;DHT22;3790;48.806;9.140;2024-02-04T18:05:24;9.00;99.90
7498;DHT22;3790;48.806;9.140;2024-02-04T18:10:25;9.00;99.90
7498;DHT22;3790;48.806;9.140;2024-02-04T18:15:25;9.00;99.90
7498;DHT22;3790;48.806;9.140;2024-02-04T18:20:26;9.00;99.90
7498;DHT22;3790;48.806;9.140;2024-02-04T18:25:26;9.00;99.90
7498;DHT22;3790;48.806;9.140;2024-02-04T18:30:27;8.90;99.90
7498;DHT22;3790;48.806;9.140;2024-02-04T18:35:28;8.90;99.90
7498;DHT22;3790;48.806;9.140;2024-02-04T18:40:28;8.80;99.90
7498;DHT22;3790;48.806;9.140;2024-02-04T18:45:29;8.80;99.90
7498;DHT22;3790;48.806;9.140;2024-02-04T18:50:30;8.80;99.90
7498;DHT22;3790;48.806;9.140;2024-02-04T18:55:30;8.80;99.90
7498;DHT22;3790;48.806;9.140;2024-02-04T19:00:32;8.80;99.90
7498;DHT22;3790;48.806;9.140;2024-02-04T19:05:32;8.70;99.90
7498;DHT22;3790;48.806;9.140;2024-02-04T19:10:33;8.70;99.90
7498;DHT22;3790;48.806;9.140;2024-02-04T19:15:34;8.70;99.90
7498;DHT22;3790;48.806;9.140;2024-02-04T19:20:34;8.70;99.90
7498;DHT22;3790;48.806;9.140;2024-02-04T19:25:35;8.70;99.90
7498;DHT22;3790;48.806;9.140;2024-02-04T19:30:41;8.70;99.90
7498;DHT22;3790;48.806;9.140;2024-02-04T19:35:41;8.70;99.90
7498;DHT22;3790;48.806;9.140;2024-02-04T19:40:42;8.70;99.90
7498;DHT22;3790;48.806;9.140;2024-02-04T19:45:42;8.70;99.90
7498;DHT22;3790;48.806;9.140;2024-02-04T19:50:43;8.70;99.90
7498;DHT22;3790;48.806;9.140;2024-02-04T19:55:43;8.70;99.90
7498;DHT22;3790;48.806;9.140;2024-02-04T20:00:44;8.70;99.90
7498;DHT22;3790;48.806;9.140;2024-02-04T20:05:44;8.70;99.90
7498;DHT22;3790;48.806;9.140;2024-02-04T20:10:46;8.70;99.90
7498;DHT22;3790;48.806;9.140;2024-02-04T20:15:47;8.70;99.90
7498;DHT22;3790;48.806;9.140;2024-02-04T20:20:47;8.70;99.90
7498;DHT22;3790;48.806;9.140;2024-02-04T20:25:48;8.70;99.90
7498;DHT22;3790;48.806;9.140;2024-02-04T20:30:50;8.70;99.90
7498;DHT22;3790;48.806;9.140;2024-02-04T20:35:50;8.60;99.90
7498;DHT22;3790;48.806;9.140;2024-02-04T20:40:51;8.60;99.90
7498;DHT22;3790;48.806;9.140;2024-02-04T20:45:51;8.60;99.90
7498;DHT22;3790;48.806;9.140;2024-02-04T20:50:52;8.60;99.90
7498;DHT22;3790;48.806;9.140;2024-02-04T20:55:53;8.60;99.90
7498;DHT22;3790;48.806;9.140;2024-02-04T21:00:53;8.80;99.90
7498;DHT22;3790;48.806;9.140;2024-02-04T21:05:54;8.60;99.90
7498;DHT22;3790;48.806;9.140;2024-02-04T21:10:54;8.60;99.90
7498;DHT22;3790;48.806;9.140;2024-02-04T21:15:55;8.50;99.90
7498;DHT22;3790;48.806;9.140;2024-02-04T21:20:55;8.30;99.90
7498;DHT22;3790;48.806;9.140;2024-02-04T21:25:56;8.30;99.90
7498;DHT22;3790;48.806;9.140;2024-02-04T21:30:57;8.40;99.90
7498;DHT22;3790;48.806;9.140;2024-02-04T21:35:57;8.50;99.90
7498;DHT22;3790;48.806;9.140;2024-02-04T21:40:58;8.50;99.90
7498;DHT22;3790;48.806;9.140;2024-02-04T21:45:59;8.40;99.90
7498;DHT22;3790;48.806;9.140;2024-02-04T21:51:00;8.40;99.90
7498;DHT22;3790;48.806;9.140;2024-02-04T21:56:00;8.20;99.90
7498;DHT22;3790;48.806;9.140;2024-02-04T22:01:01;8.10;99.90
7498;DHT22;3790;48.806;9.140;2024-02-04T22:06:01;7.90;99.90
7498;DHT22;3790;48.806;9.140;2024-02-04T22:11:02;7.70;99.90
7498;DHT22;3790;48.806;9.140;2024-02-04T22:16:03;7.60;99.90
7498;DHT22;3790;48.806;9.140;2024-02-04T22:21:04;7.70;99.90
7498;DHT22;3790;48.806;9.140;2024-02-04T22:26:05;7.60;99.90
7498;DHT22;3790;48.806;9.140;2024-02-04T22:31:06;7.50;99.90
7498;DHT22;3790;48.806;9.140;2024-02-04T22:36:08;7.60;99.90
7498;DHT22;3790;48.806;9.140;2024-02-04T22:41:09;7.70;99.90
7498;DHT22;3790;48.806;9.140;2024-02-04T22:46:11;7.60;99.90
7498;DHT22;3790;48.806;9.140;2024-02-04T22:51:12;7.50;99.90
7498;DHT22;3790;48.806;9.140;2024-02-04T22:56:13;7.40;99.90
7498;DHT22;3790;48.806;9.140;2024-02-04T23:01:14;7.10;99.90
7498;DHT22;3790;48.806;9.140;2024-02-04T23:06:16;6.80;99.90
7498;DHT22;3790;48.806;9.140;2024-02-04T23:11:17;6.80;99.90
7498;DHT22;3790;48.806;9.140;2024-02-04T23:16:17;6.80;99.90
7498;DHT22;3790;48.806;9.140;2024-02-04T23:21:18;6.70;99.90
7498;DHT22;3790;48.806;9.140;2024-02-04T23:26:18;6.90;99.90
7498;DHT22;3790;48.806;9.140;2024-02-04T23:31:19;6.90;99.90
7498;DHT22;3790;48.806;9.140;2024-02-04T23:36:21;6.80;99.90
7498;DHT22;3790;48.806;9.140;2024-02-04T23:41:24;6.90;99.90
7498;DHT22;3790;48.806;9.140;2024-02-04T23:46:25;7.30;99.90
7498;DHT22;3790;48.806;9.140;2024-02-04T23:51:26;7.50;99.90
7498;DHT22;3790;48.806;9.140;2024-02-04T23:56:27;7.70;99.90
